Claire A — TCRP2 — position and weather

sailwx.info

Track history (hours):
 
Tides and Currents Weather Stations Pressure Air Temp Water Temp Dewpoint Dewpoint Depression Visibility Wind Speed Wind Dir Waves Ship Positions

Claire A

Last reported at 2018-Jan-19 11:28 UTC. Time now 2018-Jan-19 11:33 UTC.
Position N 37°57' E 023°35'.

Length 184 m; draft 7.9 m.

Type: Ship. MMSI: 271001092.

Date/timePositionNaut miles runAvg speedWind from/ knotsBaromVisibWave heightAir tempDewpointWater temp
2018-Jan-19 11:28N 37°57' E 023°35'0 0.0
2018-Jan-19 11:00N 37°57' E 023°35'0 0.0
2018-Jan-19 10:30N 37°57' E 023°35'0 0.0
2018-Jan-19 10:00N 37°57' E 023°35'0 0.0
2018-Jan-19 09:30N 37°57' E 023°35'0 0.0
2018-Jan-19 09:00N 37°57' E 023°35'0 0.0
2018-Jan-19 08:29N 37°57' E 023°35'0 0.0
2018-Jan-19 07:56N 37°57' E 023°35'0 0.0
2018-Jan-19 07:29N 37°57' E 023°35'0 0.0
2018-Jan-19 06:59N 37°57' E 023°35'0 0.0
2018-Jan-19 06:29N 37°57' E 023°35'0 0.0
2018-Jan-19 05:58N 37°57' E 023°35'0 0.0
2018-Jan-19 05:28N 37°57' E 023°35'0 0.0
2018-Jan-19 04:58N 37°57' E 023°35'0 0.0
2018-Jan-19 04:28N 37°57' E 023°35'0 0.0
2018-Jan-19 03:58N 37°57' E 023°35'0 0.0
2018-Jan-19 03:28N 37°57' E 023°35'0 0.0
2018-Jan-19 03:00N 37°57' E 023°35'0 0.0
2018-Jan-19 02:30N 37°57' E 023°35'0 0.0
2018-Jan-19 02:00N 37°57' E 023°35'0 0.0
2018-Jan-19 01:30N 37°57' E 023°35'0 0.0
2018-Jan-19 00:59N 37°57' E 023°35'0 0.0
2018-Jan-19 00:29N 37°57' E 023°35'0 0.0
2018-Jan-19 00:00N 37°57' E 023°35'1 1.7
2018-Jan-18 23:30N 37°57' E 023°35'2 3.1
2018-Jan-18 23:00N 37°55' E 023°35'0 0.6
2018-Jan-18 22:30N 37°55' E 023°35'1 2.0
2018-Jan-18 22:00N 37°54' E 023°36'4 7.1
2018-Jan-18 21:30N 37°52' E 023°32'1 1.0
2018-Jan-18 20:58N 37°52' E 023°31'0 0.1
2018-Jan-18 20:30N 37°52' E 023°31'0 0.0
2018-Jan-18 20:00N 37°52' E 023°31'0 0.0
2018-Jan-18 19:30N 37°52' E 023°31'0 0.1
2018-Jan-18 19:00N 37°52' E 023°31'0 0.0
2018-Jan-18 18:30N 37°52' E 023°31'0 0.0
2018-Jan-18 17:59N 37°52' E 023°31'0 0.1
2018-Jan-18 17:26N 37°52' E 023°31'0 0.1
2018-Jan-18 16:59N 37°52' E 023°31'0 0.1
2018-Jan-18 16:29N 37°52' E 023°31'0 0.1
2018-Jan-18 15:58N 37°52' E 023°31'0 0.0
2018-Jan-18 15:28N 37°52' E 023°31'0 0.0
2018-Jan-18 14:58N 37°52' E 023°31'0 0.0
2018-Jan-18 14:28N 37°52' E 023°31'0 0.1
2018-Jan-18 13:58N 37°52' E 023°31'0 0.1
2018-Jan-18 13:30N 37°52' E 023°31'0 0.1
2018-Jan-18 13:00N 37°52' E 023°31'0 0.1
2018-Jan-18 12:30N 37°52' E 023°31'0 0.1
2018-Jan-18 12:00N 37°52' E 023°31'0 0.5
2018-Jan-18 11:30N 37°52' E 023°31'3 6.9
2018-Jan-18 11:00N 37°53' E 023°35'510.3
2018-Jan-18 10:30N 37°50' E 023°40'713.7
2018-Jan-18 10:00N 37°43' E 023°43'613.0
2018-Jan-18 09:30N 37°37' E 023°45'713.4
2018-Jan-18 09:00N 37°30' E 023°46'  
2018-Jan-11 17:45N 35°31' W 006°15'614.2
2018-Jan-11 17:21N 35°36' W 006°11'1114.5
2018-Jan-11 16:34N 35°45' W 006°03'112.0
2018-Jan-11 16:29N 35°46' W 006°02'713.9
2018-Jan-11 15:58N 35°52' W 005°57'914.5
2018-Jan-11 15:22N 35°56' W 005°48'512.9
2018-Jan-11 15:00N 35°57' W 005°42'612.5
2018-Jan-11 14:30N 35°57' W 005°34'5 9.4
2018-Jan-11 14:00N 35°54' W 005°30'1 1.1
2018-Jan-11 13:26N 35°54' W 005°29'0 0.0
2018-Jan-11 12:56N 35°54' W 005°29'0 0.0
2018-Jan-11 12:29N 35°54' W 005°29'0 0.0
2018-Jan-11 11:58N 35°54' W 005°29'0 0.0
2018-Jan-11 11:28N 35°54' W 005°29'0 0.0
2018-Jan-11 10:52N 35°54' W 005°29'0 0.0
2018-Jan-11 10:28N 35°54' W 005°29'0 0.0
2018-Jan-11 09:57N 35°54' W 005°29'0 0.0
2018-Jan-11 09:30N 35°54' W 005°29'0 0.0
2018-Jan-11 09:00N 35°54' W 005°29'0 0.0
2018-Jan-11 08:30N 35°54' W 005°29'0 0.0
2018-Jan-11 07:48N 35°54' W 005°29'0 0.0
2018-Jan-11 07:23N 35°54' W 005°29'0 0.0
2018-Jan-11 06:57N 35°54' W 005°29'0 0.0
2018-Jan-11 06:29N 35°54' W 005°29'0 0.0
2018-Jan-11 05:54N 35°54' W 005°29'0 0.0
2018-Jan-11 05:29N 35°54' W 005°29'0 0.0
2018-Jan-11 04:56N 35°54' W 005°29'0 0.0
2018-Jan-11 04:28N 35°54' W 005°29'0 0.0
2018-Jan-11 03:55N 35°54' W 005°29'0 0.0
2018-Jan-11 03:22N 35°54' W 005°29'0 0.0
2018-Jan-11 03:00N 35°54' W 005°29'0 0.0
2018-Jan-11 02:30N 35°54' W 005°29'0 0.0
2018-Jan-11 01:57N 35°54' W 005°29'0 0.0
2018-Jan-11 01:30N 35°54' W 005°29'0 0.0
2018-Jan-11 00:57N 35°54' W 005°29'0 0.0
2018-Jan-11 00:26N 35°54' W 005°29'0 0.0
2018-Jan-10 23:59N 35°54' W 005°29'0 0.0
2018-Jan-10 23:26N 35°54' W 005°29'0 0.0
2018-Jan-10 22:59N 35°54' W 005°29'0 0.0
2018-Jan-10 22:20N 35°54' W 005°29'0 0.0
2018-Jan-10 21:58N 35°54' W 005°29'0 0.0
2018-Jan-10 21:29N 35°54' W 005°29'0 0.0
2018-Jan-10 20:58N 35°54' W 005°29'0 0.0
2018-Jan-10 20:28N 35°54' W 005°29'0 0.0
2018-Jan-10 20:00N 35°54' W 005°29'0 0.0
2018-Jan-10 19:27N 35°54' W 005°29'0 0.0
2018-Jan-10 18:58N 35°54' W 005°29'0 0.8
2018-Jan-10 18:30N 35°54' W 005°30'2 3.7
2018-Jan-10 18:00N 35°55' W 005°31'5 9.3
2018-Jan-10 17:31N 35°59' W 005°28'612.6
2018-Jan-10 17:01N 36°01' W 005°20'612.7
2018-Jan-10 16:30N 36°02' W 005°12'713.6
2018-Jan-10 16:00N 36°03' W 005°04'815.1
2018-Jan-10 15:30N 36°04' W 004°55'715.1
2018-Jan-10 15:01N 36°06' W 004°46'814.8
2018-Jan-10 14:28N 36°07' W 004°36'815.4
2018-Jan-10 13:59N 36°08' W 004°27'  
Track history (hours):
 
Tides and Currents Weather Stations Pressure Air Temp Water Temp Dewpoint Dewpoint Depression Visibility Wind Speed Wind Dir Waves Ship Positions

Claire A

Last reported at 2018-Jan-19 11:28 UTC. Time now 2018-Jan-19 11:33 UTC.
Position N 37°57' E 023°35'.

Length 184 m; draft 7.9 m.

Type: Ship. MMSI: 271001092.

Date/timePositionNaut miles runAvg speedWind from/ knotsBaromVisibWave heightAir tempDewpointWater temp
2018-Jan-19 11:28N 37°57' E 023°35'0 0.0
2018-Jan-19 11:00N 37°57' E 023°35'0 0.0
2018-Jan-19 10:30N 37°57' E 023°35'0 0.0
2018-Jan-19 10:00N 37°57' E 023°35'0 0.0
2018-Jan-19 09:30N 37°57' E 023°35'0 0.0
2018-Jan-19 09:00N 37°57' E 023°35'0 0.0
2018-Jan-19 08:29N 37°57' E 023°35'0 0.0
2018-Jan-19 07:56N 37°57' E 023°35'0 0.0
2018-Jan-19 07:29N 37°57' E 023°35'0 0.0
2018-Jan-19 06:59N 37°57' E 023°35'0 0.0
2018-Jan-19 06:29N 37°57' E 023°35'0 0.0
2018-Jan-19 05:58N 37°57' E 023°35'0 0.0
2018-Jan-19 05:28N 37°57' E 023°35'0 0.0
2018-Jan-19 04:58N 37°57' E 023°35'0 0.0
2018-Jan-19 04:28N 37°57' E 023°35'0 0.0
2018-Jan-19 03:58N 37°57' E 023°35'0 0.0
2018-Jan-19 03:28N 37°57' E 023°35'0 0.0
2018-Jan-19 03:00N 37°57' E 023°35'0 0.0
2018-Jan-19 02:30N 37°57' E 023°35'0 0.0
2018-Jan-19 02:00N 37°57' E 023°35'0 0.0
2018-Jan-19 01:30N 37°57' E 023°35'0 0.0
2018-Jan-19 00:59N 37°57' E 023°35'0 0.0
2018-Jan-19 00:29N 37°57' E 023°35'0 0.0
2018-Jan-19 00:00N 37°57' E 023°35'1 1.7
2018-Jan-18 23:30N 37°57' E 023°35'2 3.1
2018-Jan-18 23:00N 37°55' E 023°35'0 0.6
2018-Jan-18 22:30N 37°55' E 023°35'1 2.0
2018-Jan-18 22:00N 37°54' E 023°36'4 7.1
2018-Jan-18 21:30N 37°52' E 023°32'1 1.0
2018-Jan-18 20:58N 37°52' E 023°31'0 0.1
2018-Jan-18 20:30N 37°52' E 023°31'0 0.0
2018-Jan-18 20:00N 37°52' E 023°31'0 0.0
2018-Jan-18 19:30N 37°52' E 023°31'0 0.1
2018-Jan-18 19:00N 37°52' E 023°31'0 0.0
2018-Jan-18 18:30N 37°52' E 023°31'0 0.0
2018-Jan-18 17:59N 37°52' E 023°31'0 0.1
2018-Jan-18 17:26N 37°52' E 023°31'0 0.1
2018-Jan-18 16:59N 37°52' E 023°31'0 0.1
2018-Jan-18 16:29N 37°52' E 023°31'0 0.1
2018-Jan-18 15:58N 37°52' E 023°31'0 0.0
2018-Jan-18 15:28N 37°52' E 023°31'0 0.0
2018-Jan-18 14:58N 37°52' E 023°31'0 0.0
2018-Jan-18 14:28N 37°52' E 023°31'0 0.1
2018-Jan-18 13:58N 37°52' E 023°31'0 0.1
2018-Jan-18 13:30N 37°52' E 023°31'0 0.1
2018-Jan-18 13:00N 37°52' E 023°31'0 0.1
2018-Jan-18 12:30N 37°52' E 023°31'0 0.1
2018-Jan-18 12:00N 37°52' E 023°31'0 0.5
2018-Jan-18 11:30N 37°52' E 023°31'3 6.9
2018-Jan-18 11:00N 37°53' E 023°35'510.3
2018-Jan-18 10:30N 37°50' E 023°40'713.7
2018-Jan-18 10:00N 37°43' E 023°43'613.0
2018-Jan-18 09:30N 37°37' E 023°45'713.4
2018-Jan-18 09:00N 37°30' E 023°46'  
2018-Jan-11 17:45N 35°31' W 006°15'614.2
2018-Jan-11 17:21N 35°36' W 006°11'1114.5
2018-Jan-11 16:34N 35°45' W 006°03'112.0
2018-Jan-11 16:29N 35°46' W 006°02'713.9
2018-Jan-11 15:58N 35°52' W 005°57'914.5
2018-Jan-11 15:22N 35°56' W 005°48'512.9
2018-Jan-11 15:00N 35°57' W 005°42'612.5
2018-Jan-11 14:30N 35°57' W 005°34'5 9.4
2018-Jan-11 14:00N 35°54' W 005°30'1 1.1
2018-Jan-11 13:26N 35°54' W 005°29'0 0.0
2018-Jan-11 12:56N 35°54' W 005°29'0 0.0
2018-Jan-11 12:29N 35°54' W 005°29'0 0.0
2018-Jan-11 11:58N 35°54' W 005°29'0 0.0
2018-Jan-11 11:28N 35°54' W 005°29'0 0.0
2018-Jan-11 10:52N 35°54' W 005°29'0 0.0
2018-Jan-11 10:28N 35°54' W 005°29'0 0.0
2018-Jan-11 09:57N 35°54' W 005°29'0 0.0
2018-Jan-11 09:30N 35°54' W 005°29'0 0.0
2018-Jan-11 09:00N 35°54' W 005°29'0 0.0
2018-Jan-11 08:30N 35°54' W 005°29'0 0.0
2018-Jan-11 07:48N 35°54' W 005°29'0 0.0
2018-Jan-11 07:23N 35°54' W 005°29'0 0.0
2018-Jan-11 06:57N 35°54' W 005°29'0 0.0
2018-Jan-11 06:29N 35°54' W 005°29'0 0.0
2018-Jan-11 05:54N 35°54' W 005°29'0 0.0
2018-Jan-11 05:29N 35°54' W 005°29'0 0.0
2018-Jan-11 04:56N 35°54' W 005°29'0 0.0
2018-Jan-11 04:28N 35°54' W 005°29'0 0.0
2018-Jan-11 03:55N 35°54' W 005°29'0 0.0
2018-Jan-11 03:22N 35°54' W 005°29'0 0.0
2018-Jan-11 03:00N 35°54' W 005°29'0 0.0
2018-Jan-11 02:30N 35°54' W 005°29'0 0.0
2018-Jan-11 01:57N 35°54' W 005°29'0 0.0
2018-Jan-11 01:30N 35°54' W 005°29'0 0.0
2018-Jan-11 00:57N 35°54' W 005°29'0 0.0
2018-Jan-11 00:26N 35°54' W 005°29'0 0.0
2018-Jan-10 23:59N 35°54' W 005°29'0 0.0
2018-Jan-10 23:26N 35°54' W 005°29'0 0.0
2018-Jan-10 22:59N 35°54' W 005°29'0 0.0
2018-Jan-10 22:20N 35°54' W 005°29'0 0.0
2018-Jan-10 21:58N 35°54' W 005°29'0 0.0
2018-Jan-10 21:29N 35°54' W 005°29'0 0.0
2018-Jan-10 20:58N 35°54' W 005°29'0 0.0
2018-Jan-10 20:28N 35°54' W 005°29'0 0.0
2018-Jan-10 20:00N 35°54' W 005°29'0 0.0
2018-Jan-10 19:27N 35°54' W 005°29'0 0.0
2018-Jan-10 18:58N 35°54' W 005°29'0 0.8
2018-Jan-10 18:30N 35°54' W 005°30'2 3.7
2018-Jan-10 18:00N 35°55' W 005°31'5 9.3
2018-Jan-10 17:31N 35°59' W 005°28'612.6
2018-Jan-10 17:01N 36°01' W 005°20'612.7
2018-Jan-10 16:30N 36°02' W 005°12'713.6
2018-Jan-10 16:00N 36°03' W 005°04'815.1
2018-Jan-10 15:30N 36°04' W 004°55'715.1
2018-Jan-10 15:01N 36°06' W 004°46'814.8
2018-Jan-10 14:28N 36°07' W 004°36'815.4
2018-Jan-10 13:59N 36°08' W 004°27'  

Dump ship's entire track history